sensor_id;sensor_type;location;lat;lon;timestamp;P1;durP1;ratioP1;P2;durP2;ratioP2
22046;SDS011;11187;49.412;20.956;2023-08-06T00:02:01;29.92;;;27.27;;
22046;SDS011;11187;49.412;20.956;2023-08-06T00:04:35;27.88;;;25.30;;
22046;SDS011;11187;49.412;20.956;2023-08-06T00:07:28;29.83;;;27.60;;
22046;SDS011;11187;49.412;20.956;2023-08-06T00:10:02;28.20;;;25.95;;
22046;SDS011;11187;49.412;20.956;2023-08-06T00:12:55;26.77;;;24.77;;
22046;SDS011;11187;49.412;20.956;2023-08-06T00:15:29;30.02;;;27.60;;
22046;SDS011;11187;49.412;20.956;2023-08-06T00:18:15;28.90;;;26.38;;
22046;SDS011;11187;49.412;20.956;2023-08-06T00:20:49;27.35;;;25.08;;
22046;SDS011;11187;49.412;20.956;2023-08-06T00:23:35;28.58;;;26.02;;
22046;SDS011;11187;49.412;20.956;2023-08-06T00:26:26;27.55;;;24.85;;
22046;SDS011;11187;49.412;20.956;2023-08-06T00:29:13;31.00;;;27.65;;
22046;SDS011;11187;49.412;20.956;2023-08-06T00:31:47;27.80;;;24.95;;
22046;SDS011;11187;49.412;20.956;2023-08-06T00:34:33;26.52;;;24.10;;
22046;SDS011;11187;49.412;20.956;2023-08-06T00:37:07;29.08;;;26.73;;
22046;SDS011;11187;49.412;20.956;2023-08-06T00:39:53;28.15;;;25.75;;
22046;SDS011;11187;49.412;20.956;2023-08-06T00:42:27;27.17;;;24.88;;
22046;SDS011;11187;49.412;20.956;2023-08-06T00:45:14;26.13;;;23.83;;
22046;SDS011;11187;49.412;20.956;2023-08-06T00:47:48;27.98;;;25.13;;
22046;SDS011;11187;49.412;20.956;2023-08-06T00:50:35;30.55;;;26.45;;
22046;SDS011;11187;49.412;20.956;2023-08-06T00:53:09;27.00;;;24.80;;
22046;SDS011;11187;49.412;20.956;2023-08-06T00:55:55;27.40;;;24.90;;
22046;SDS011;11187;49.412;20.956;2023-08-06T00:58:29;28.65;;;26.02;;
22046;SDS011;11187;49.412;20.956;2023-08-06T01:01:16;26.25;;;23.90;;
22046;SDS011;11187;49.412;20.956;2023-08-06T01:03:50;28.02;;;25.67;;
22046;SDS011;11187;49.412;20.956;2023-08-06T01:09:35;27.83;;;25.45;;
22046;SDS011;11187;49.412;20.956;2023-08-06T01:12:33;28.73;;;26.17;;
22046;SDS011;11187;49.412;20.956;2023-08-06T01:15:17;28.10;;;26.23;;
22046;SDS011;11187;49.412;20.956;2023-08-06T01:18:08;29.13;;;26.77;;
22046;SDS011;11187;49.412;20.956;2023-08-06T01:20:43;30.33;;;28.00;;
22046;SDS011;11187;49.412;20.956;2023-08-06T01:23:36;26.88;;;24.88;;
22046;SDS011;11187;49.412;20.956;2023-08-06T01:29:18;27.60;;;25.67;;
22046;SDS011;11187;49.412;20.956;2023-08-06T01:31:58;29.48;;;26.40;;
22046;SDS011;11187;49.412;20.956;2023-08-06T01:34:52;29.33;;;26.77;;
22046;SDS011;11187;49.412;20.956;2023-08-06T01:37:27;29.13;;;26.83;;
22046;SDS011;11187;49.412;20.956;2023-08-06T01:40:14;29.48;;;27.55;;
22046;SDS011;11187;49.412;20.956;2023-08-06T01:42:48;31.75;;;29.30;;
22046;SDS011;11187;49.412;20.956;2023-08-06T01:45:34;31.10;;;28.80;;
22046;SDS011;11187;49.412;20.956;2023-08-06T01:48:08;30.30;;;28.05;;
22046;SDS011;11187;49.412;20.956;2023-08-06T01:50:54;29.75;;;27.33;;
22046;SDS011;11187;49.412;20.956;2023-08-06T01:53:28;28.73;;;26.30;;
22046;SDS011;11187;49.412;20.956;2023-08-06T01:56:22;30.70;;;27.95;;
22046;SDS011;11187;49.412;20.956;2023-08-06T01:59:04;27.73;;;25.38;;
22046;SDS011;11187;49.412;20.956;2023-08-06T02:01:58;29.52;;;26.63;;
22046;SDS011;11187;49.412;20.956;2023-08-06T02:04:32;30.73;;;27.83;;
22046;SDS011;11187;49.412;20.956;2023-08-06T02:07:18;29.02;;;26.70;;
22046;SDS011;11187;49.412;20.956;2023-08-06T02:09:52;27.50;;;25.38;;
22046;SDS011;11187;49.412;20.956;2023-08-06T02:12:38;28.73;;;26.83;;
22046;SDS011;11187;49.412;20.956;2023-08-06T02:15:12;28.77;;;26.48;;
22046;SDS011;11187;49.412;20.956;2023-08-06T02:18:05;33.08;;;28.77;;
22046;SDS011;11187;49.412;20.956;2023-08-06T02:20:39;29.65;;;26.90;;
22046;SDS011;11187;49.412;20.956;2023-08-06T02:23:26;29.27;;;26.88;;
22046;SDS011;11187;49.412;20.956;2023-08-06T02:26:03;27.58;;;25.17;;
22046;SDS011;11187;49.412;20.956;2023-08-06T02:28:57;29.67;;;27.08;;
22046;SDS011;11187;49.412;20.956;2023-08-06T02:31:31;30.60;;;27.73;;
22046;SDS011;11187;49.412;20.956;2023-08-06T02:34:25;29.17;;;27.10;;
22046;SDS011;11187;49.412;20.956;2023-08-06T02:37:19;29.48;;;27.27;;
22046;SDS011;11187;49.412;20.956;2023-08-06T02:40:13;28.90;;;26.38;;
22046;SDS011;11187;49.412;20.956;2023-08-06T02:42:47;29.50;;;27.17;;
22046;SDS011;11187;49.412;20.956;2023-08-06T02:45:33;31.38;;;28.70;;
22046;SDS011;11187;49.412;20.956;2023-08-06T02:48:07;29.42;;;27.33;;
22046;SDS011;11187;49.412;20.956;2023-08-06T02:50:56;30.83;;;28.08;;
22046;SDS011;11187;49.412;20.956;2023-08-06T02:53:31;31.15;;;28.70;;
22046;SDS011;11187;49.412;20.956;2023-08-06T02:56:25;31.88;;;29.55;;
22046;SDS011;11187;49.412;20.956;2023-08-06T02:58:59;31.02;;;28.80;;
22046;SDS011;11187;49.412;20.956;2023-08-06T03:01:52;29.65;;;27.33;;
22046;SDS011;11187;49.412;20.956;2023-08-06T03:04:46;31.95;;;29.27;;
22046;SDS011;11187;49.412;20.956;2023-08-06T03:07:40;29.92;;;27.52;;
22046;SDS011;11187;49.412;20.956;2023-08-06T03:10:14;31.55;;;28.85;;
22046;SDS011;11187;49.412;20.956;2023-08-06T03:13:00;32.00;;;29.58;;
22046;SDS011;11187;49.412;20.956;2023-08-06T03:15:34;32.58;;;30.15;;
22046;SDS011;11187;49.412;20.956;2023-08-06T03:18:27;32.45;;;29.90;;
22046;SDS011;11187;49.412;20.956;2023-08-06T03:21:21;31.35;;;28.90;;
22046;SDS011;11187;49.412;20.956;2023-08-06T03:23:55;35.15;;;32.40;;
22046;SDS011;11187;49.412;20.956;2023-08-06T03:26:41;32.55;;;30.05;;
22046;SDS011;11187;49.412;20.956;2023-08-06T03:29:15;32.08;;;29.58;;
22046;SDS011;11187;49.412;20.956;2023-08-06T03:32:08;32.63;;;30.20;;
22046;SDS011;11187;49.412;20.956;2023-08-06T03:35:02;32.70;;;30.00;;
22046;SDS011;11187;49.412;20.956;2023-08-06T03:37:36;32.17;;;29.67;;
22046;SDS011;11187;49.412;20.956;2023-08-06T03:40:22;33.85;;;31.33;;
22046;SDS011;11187;49.412;20.956;2023-08-06T03:42:56;33.05;;;30.40;;
22046;SDS011;11187;49.412;20.956;2023-08-06T03:45:42;33.67;;;30.65;;
22046;SDS011;11187;49.412;20.956;2023-08-06T03:48:16;34.30;;;31.40;;
22046;SDS011;11187;49.412;20.956;2023-08-06T03:51:02;33.30;;;30.88;;
22046;SDS011;11187;49.412;20.956;2023-08-06T03:53:36;33.42;;;31.08;;
22046;SDS011;11187;49.412;20.956;2023-08-06T03:56:22;33.20;;;30.60;;
22046;SDS011;11187;49.412;20.956;2023-08-06T03:58:56;34.67;;;32.03;;
22046;SDS011;11187;49.412;20.956;2023-08-06T04:01:42;33.42;;;31.20;;
22046;SDS011;11187;49.412;20.956;2023-08-06T04:04:16;33.47;;;30.83;;
22046;SDS011;11187;49.412;20.956;2023-08-06T04:07:03;34.80;;;32.22;;
22046;SDS011;11187;49.412;20.956;2023-08-06T04:09:53;33.70;;;31.50;;
22046;SDS011;11187;49.412;20.956;2023-08-06T04:12:47;34.05;;;31.67;;
22046;SDS011;11187;49.412;20.956;2023-08-06T04:15:41;34.20;;;31.90;;
22046;SDS011;11187;49.412;20.956;2023-08-06T04:18:15;34.75;;;32.10;;
22046;SDS011;11187;49.412;20.956;2023-08-06T04:21:02;35.00;;;32.60;;
22046;SDS011;11187;49.412;20.956;2023-08-06T04:23:35;36.13;;;32.85;;
22046;SDS011;11187;49.412;20.956;2023-08-06T04:26:22;34.50;;;32.00;;
22046;SDS011;11187;49.412;20.956;2023-08-06T04:28:55;37.40;;;34.50;;
22046;SDS011;11187;49.412;20.956;2023-08-06T04:31:41;37.72;;;34.67;;
22046;SDS011;11187;49.412;20.956;2023-08-06T04:34:15;38.40;;;35.33;;
22046;SDS011;11187;49.412;20.956;2023-08-06T04:37:02;39.90;;;37.10;;
22046;SDS011;11187;49.412;20.956;2023-08-06T04:39:36;40.20;;;36.67;;
22046;SDS011;11187;49.412;20.956;2023-08-06T04:42:29;38.42;;;35.47;;
22046;SDS011;11187;49.412;20.956;2023-08-06T04:45:03;37.65;;;35.05;;
22046;SDS011;11187;49.412;20.956;2023-08-06T04:47:57;37.75;;;34.65;;
22046;SDS011;11187;49.412;20.956;2023-08-06T04:50:31;37.03;;;34.45;;
22046;SDS011;11187;49.412;20.956;2023-08-06T04:53:17;38.88;;;35.88;;
22046;SDS011;11187;49.412;20.956;2023-08-06T04:56:04;38.05;;;35.05;;
22046;SDS011;11187;49.412;20.956;2023-08-06T04:58:58;35.53;;;33.00;;
22046;SDS011;11187;49.412;20.956;2023-08-06T05:01:32;37.45;;;34.25;;
22046;SDS011;11187;49.412;20.956;2023-08-06T05:04:18;37.67;;;34.85;;
22046;SDS011;11187;49.412;20.956;2023-08-06T05:06:52;36.58;;;33.67;;
22046;SDS011;11187;49.412;20.956;2023-08-06T05:09:38;34.10;;;31.52;;
22046;SDS011;11187;49.412;20.956;2023-08-06T05:12:12;36.58;;;33.90;;
22046;SDS011;11187;49.412;20.956;2023-08-06T05:15:06;35.40;;;32.80;;
22046;SDS011;11187;49.412;20.956;2023-08-06T05:17:59;36.10;;;33.35;;
22046;SDS011;11187;49.412;20.956;2023-08-06T05:20:35;36.75;;;34.10;;
22046;SDS011;11187;49.412;20.956;2023-08-06T05:23:29;36.50;;;33.75;;
22046;SDS011;11187;49.412;20.956;2023-08-06T05:26:23;35.53;;;33.08;;
22046;SDS011;11187;49.412;20.956;2023-08-06T05:29:17;34.65;;;31.85;;
22046;SDS011;11187;49.412;20.956;2023-08-06T05:31:51;34.13;;;31.65;;
22046;SDS011;11187;49.412;20.956;2023-08-06T05:34:37;34.25;;;31.73;;
22046;SDS011;11187;49.412;20.956;2023-08-06T05:37:11;35.78;;;33.10;;
22046;SDS011;11187;49.412;20.956;2023-08-06T05:40:05;36.05;;;33.22;;
22046;SDS011;11187;49.412;20.956;2023-08-06T05:42:58;34.42;;;32.05;;
22046;SDS011;11187;49.412;20.956;2023-08-06T05:45:32;34.92;;;32.15;;
22046;SDS011;11187;49.412;20.956;2023-08-06T05:48:25;36.33;;;33.42;;
22046;SDS011;11187;49.412;20.956;2023-08-06T05:51:00;36.28;;;33.47;;
22046;SDS011;11187;49.412;20.956;2023-08-06T05:53:47;33.85;;;31.27;;
22046;SDS011;11187;49.412;20.956;2023-08-06T05:56:41;34.90;;;32.35;;
22046;SDS011;11187;49.412;20.956;2023-08-06T05:59:35;36.92;;;34.30;;
22046;SDS011;11187;49.412;20.956;2023-08-06T06:02:09;36.95;;;34.47;;
22046;SDS011;11187;49.412;20.956;2023-08-06T06:04:55;36.17;;;33.70;;
22046;SDS011;11187;49.412;20.956;2023-08-06T06:07:29;36.22;;;33.53;;
22046;SDS011;11187;49.412;20.956;2023-08-06T06:10:23;37.97;;;35.17;;
22046;SDS011;11187;49.412;20.956;2023-08-06T06:13:17;37.60;;;34.75;;
22046;SDS011;11187;49.412;20.956;2023-08-06T06:15:50;38.58;;;35.58;;
22046;SDS011;11187;49.412;20.956;2023-08-06T06:18:48;37.85;;;34.97;;
22046;SDS011;11187;49.412;20.956;2023-08-06T06:21:42;37.33;;;34.45;;
22046;SDS011;11187;49.412;20.956;2023-08-06T06:24:15;37.35;;;34.42;;
22046;SDS011;11187;49.412;20.956;2023-08-06T06:27:02;37.85;;;35.10;;
22046;SDS011;11187;49.412;20.956;2023-08-06T06:29:35;36.47;;;33.75;;
22046;SDS011;11187;49.412;20.956;2023-08-06T06:32:22;33.95;;;31.45;;
22046;SDS011;11187;49.412;20.956;2023-08-06T06:34:55;30.45;;;28.10;;
22046;SDS011;11187;49.412;20.956;2023-08-06T06:37:42;26.42;;;24.63;;
22046;SDS011;11187;49.412;20.956;2023-08-06T06:40:15;25.17;;;23.67;;
22046;SDS011;11187;49.412;20.956;2023-08-06T06:43:02;26.27;;;24.52;;
22046;SDS011;11187;49.412;20.956;2023-08-06T06:45:35;21.77;;;20.58;;
22046;SDS011;11187;49.412;20.956;2023-08-06T06:48:22;24.55;;;22.77;;
22046;SDS011;11187;49.412;20.956;2023-08-06T06:50:55;23.05;;;21.50;;
22046;SDS011;11187;49.412;20.956;2023-08-06T06:53:43;25.33;;;23.73;;
22046;SDS011;11187;49.412;20.956;2023-08-06T06:56:37;25.35;;;23.85;;
22046;SDS011;11187;49.412;20.956;2023-08-06T06:59:31;20.80;;;19.60;;
22046;SDS011;11187;49.412;20.956;2023-08-06T07:02:04;23.38;;;21.70;;
22046;SDS011;11187;49.412;20.956;2023-08-06T07:04:52;24.75;;;23.00;;
22046;SDS011;11187;49.412;20.956;2023-08-06T07:07:25;23.93;;;22.03;;
22046;SDS011;11187;49.412;20.956;2023-08-06T07:10:12;23.60;;;22.20;;
22046;SDS011;11187;49.412;20.956;2023-08-06T07:12:45;22.52;;;21.23;;
22046;SDS011;11187;49.412;20.956;2023-08-06T07:15:32;21.77;;;20.48;;
22046;SDS011;11187;49.412;20.956;2023-08-06T07:18:05;21.70;;;20.35;;
22046;SDS011;11187;49.412;20.956;2023-08-06T07:20:52;22.42;;;21.08;;
22046;SDS011;11187;49.412;20.956;2023-08-06T07:23:27;25.08;;;22.95;;
22046;SDS011;11187;49.412;20.956;2023-08-06T07:26:14;27.00;;;24.92;;
22046;SDS011;11187;49.412;20.956;2023-08-06T07:28:47;25.85;;;24.13;;
22046;SDS011;11187;49.412;20.956;2023-08-06T07:31:27;21.45;;;20.15;;
22046;SDS011;11187;49.412;20.956;2023-08-06T07:34:07;23.73;;;22.30;;
22046;SDS011;11187;49.412;20.956;2023-08-06T07:36:40;24.23;;;22.70;;
22046;SDS011;11187;49.412;20.956;2023-08-06T07:39:30;28.25;;;26.27;;
22046;SDS011;11187;49.412;20.956;2023-08-06T07:42:03;25.88;;;24.27;;
22046;SDS011;11187;49.412;20.956;2023-08-06T07:44:54;24.80;;;23.40;;
22046;SDS011;11187;49.412;20.956;2023-08-06T07:47:29;25.42;;;24.02;;
22046;SDS011;11187;49.412;20.956;2023-08-06T07:50:16;26.00;;;24.38;;
22046;SDS011;11187;49.412;20.956;2023-08-06T07:52:49;28.58;;;26.52;;
22046;SDS011;11187;49.412;20.956;2023-08-06T07:55:36;26.17;;;24.58;;
22046;SDS011;11187;49.412;20.956;2023-08-06T07:58:30;24.92;;;23.23;;
22046;SDS011;11187;49.412;20.956;2023-08-06T08:01:05;27.60;;;25.33;;
22046;SDS011;11187;49.412;20.956;2023-08-06T08:03:53;25.08;;;22.77;;
22046;SDS011;11187;49.412;20.956;2023-08-06T08:06:26;28.35;;;26.17;;
22046;SDS011;11187;49.412;20.956;2023-08-06T08:09:13;27.75;;;25.25;;
22046;SDS011;11187;49.412;20.956;2023-08-06T08:11:47;25.80;;;23.88;;
22046;SDS011;11187;49.412;20.956;2023-08-06T08:14:41;23.00;;;21.08;;
22046;SDS011;11187;49.412;20.956;2023-08-06T08:17:35;23.98;;;22.60;;
22046;SDS011;11187;49.412;20.956;2023-08-06T08:20:29;23.85;;;22.25;;
22046;SDS011;11187;49.412;20.956;2023-08-06T08:23:23;22.65;;;21.25;;
22046;SDS011;11187;49.412;20.956;2023-08-06T08:25:56;22.08;;;20.50;;
22046;SDS011;11187;49.412;20.956;2023-08-06T08:28:44;23.48;;;21.88;;
22046;SDS011;11187;49.412;20.956;2023-08-06T08:31:17;23.48;;;21.80;;
22046;SDS011;11187;49.412;20.956;2023-08-06T08:34:04;23.27;;;21.75;;
22046;SDS011;11187;49.412;20.956;2023-08-06T08:36:37;22.98;;;21.67;;
22046;SDS011;11187;49.412;20.956;2023-08-06T08:39:27;25.77;;;24.27;;
22046;SDS011;11187;49.412;20.956;2023-08-06T08:42:00;25.95;;;24.45;;
22046;SDS011;11187;49.412;20.956;2023-08-06T08:44:48;25.52;;;24.13;;
22046;SDS011;11187;49.412;20.956;2023-08-06T08:47:21;23.77;;;22.45;;
22046;SDS011;11187;49.412;20.956;2023-08-06T08:50:09;23.45;;;22.08;;
22046;SDS011;11187;49.412;20.956;2023-08-06T08:52:44;23.00;;;21.65;;
22046;SDS011;11187;49.412;20.956;2023-08-06T08:55:38;24.13;;;22.73;;
22046;SDS011;11187;49.412;20.956;2023-08-06T08:58:33;23.52;;;22.13;;
22046;SDS011;11187;49.412;20.956;2023-08-06T09:01:27;23.15;;;21.75;;
22046;SDS011;11187;49.412;20.956;2023-08-06T09:04:22;22.80;;;21.17;;
22046;SDS011;11187;49.412;20.956;2023-08-06T09:07:02;22.92;;;21.52;;
22046;SDS011;11187;49.412;20.956;2023-08-06T09:09:52;25.90;;;23.60;;
22046;SDS011;11187;49.412;20.956;2023-08-06T09:12:26;25.35;;;22.95;;
22046;SDS011;11187;49.412;20.956;2023-08-06T09:15:26;24.35;;;22.85;;
22046;SDS011;11187;49.412;20.956;2023-08-06T09:18:00;20.70;;;19.33;;
22046;SDS011;11187;49.412;20.956;2023-08-06T09:20:56;19.48;;;18.40;;
22046;SDS011;11187;49.412;20.956;2023-08-06T09:23:30;22.42;;;20.77;;
22046;SDS011;11187;49.412;20.956;2023-08-06T09:26:18;20.52;;;18.85;;
22046;SDS011;11187;49.412;20.956;2023-08-06T09:28:52;17.73;;;16.63;;
22046;SDS011;11187;49.412;20.956;2023-08-06T09:31:50;17.27;;;16.25;;
22046;SDS011;11187;49.412;20.956;2023-08-06T09:34:26;15.60;;;14.70;;
22046;SDS011;11187;49.412;20.956;2023-08-06T09:37:20;15.27;;;14.38;;
22046;SDS011;11187;49.412;20.956;2023-08-06T09:39:53;17.30;;;16.30;;
22046;SDS011;11187;49.412;20.956;2023-08-06T09:42:42;18.83;;;17.75;;
22046;SDS011;11187;49.412;20.956;2023-08-06T09:45:16;23.08;;;21.67;;
22046;SDS011;11187;49.412;20.956;2023-08-06T09:48:13;23.75;;;22.35;;
22046;SDS011;11187;49.412;20.956;2023-08-06T09:51:07;24.02;;;22.63;;
22046;SDS011;11187;49.412;20.956;2023-08-06T09:54:02;26.73;;;24.38;;
22046;SDS011;11187;49.412;20.956;2023-08-06T09:57:07;21.90;;;20.40;;
22046;SDS011;11187;49.412;20.956;2023-08-06T09:59:41;22.15;;;20.85;;
22046;SDS011;11187;49.412;20.956;2023-08-06T10:02:39;19.60;;;18.40;;
22046;SDS011;11187;49.412;20.956;2023-08-06T10:05:35;22.05;;;20.55;;
22046;SDS011;11187;49.412;20.956;2023-08-06T10:08:14;20.25;;;18.83;;
22046;SDS011;11187;49.412;20.956;2023-08-06T10:11:08;20.33;;;19.02;;
22046;SDS011;11187;49.412;20.956;2023-08-06T10:13:43;21.38;;;19.83;;
22046;SDS011;11187;49.412;20.956;2023-08-06T10:16:31;21.13;;;19.73;;
22046;SDS011;11187;49.412;20.956;2023-08-06T10:19:05;20.02;;;18.77;;
22046;SDS011;11187;49.412;20.956;2023-08-06T10:30:25;21.52;;;20.23;;
22046;SDS011;11187;49.412;20.956;2023-08-06T10:33:19;22.25;;;20.80;;
22046;SDS011;11187;49.412;20.956;2023-08-06T10:35:53;21.17;;;19.27;;
22046;SDS011;11187;49.412;20.956;2023-08-06T10:38:49;20.77;;;19.25;;
22046;SDS011;11187;49.412;20.956;2023-08-06T10:44:23;21.38;;;19.77;;
22046;SDS011;11187;49.412;20.956;2023-08-06T10:47:07;19.42;;;18.02;;
22046;SDS011;11187;49.412;20.956;2023-08-06T10:50:23;20.90;;;19.50;;
22046;SDS011;11187;49.412;20.956;2023-08-06T10:53:18;22.80;;;21.08;;
22046;SDS011;11187;49.412;20.956;2023-08-06T10:55:52;21.75;;;19.90;;
22046;SDS011;11187;49.412;20.956;2023-08-06T10:58:40;17.77;;;16.48;;
22046;SDS011;11187;49.412;20.956;2023-08-06T11:01:14;19.17;;;17.33;;
22046;SDS011;11187;49.412;20.956;2023-08-06T11:04:02;20.67;;;19.13;;
22046;SDS011;11187;49.412;20.956;2023-08-06T11:06:38;23.52;;;21.92;;
22046;SDS011;11187;49.412;20.956;2023-08-06T11:09:36;24.92;;;23.13;;
22046;SDS011;11187;49.412;20.956;2023-08-06T11:12:10;24.65;;;22.95;;
22046;SDS011;11187;49.412;20.956;2023-08-06T11:14:58;21.60;;;19.98;;
22046;SDS011;11187;49.412;20.956;2023-08-06T11:17:32;20.50;;;19.00;;
22046;SDS011;11187;49.412;20.956;2023-08-06T11:20:28;24.92;;;23.13;;
22046;SDS011;11187;49.412;20.956;2023-08-06T11:23:22;22.58;;;21.08;;
22046;SDS011;11187;49.412;20.956;2023-08-06T11:25:58;23.70;;;21.85;;
22046;SDS011;11187;49.412;20.956;2023-08-06T11:28:45;22.45;;;20.85;;
22046;SDS011;11187;49.412;20.956;2023-08-06T11:31:21;19.77;;;18.13;;
22046;SDS011;11187;49.412;20.956;2023-08-06T11:34:16;20.90;;;19.25;;
22046;SDS011;11187;49.412;20.956;2023-08-06T11:36:49;21.40;;;19.90;;
22046;SDS011;11187;49.412;20.956;2023-08-06T11:39:46;20.25;;;18.23;;
22046;SDS011;11187;49.412;20.956;2023-08-06T11:42:23;20.95;;;19.35;;
22046;SDS011;11187;49.412;20.956;2023-08-06T11:45:21;20.77;;;18.73;;
22046;SDS011;11187;49.412;20.956;2023-08-06T11:48:16;17.50;;;16.30;;
22046;SDS011;11187;49.412;20.956;2023-08-06T11:51:12;20.00;;;18.50;;
22046;SDS011;11187;49.412;20.956;2023-08-06T11:54:07;19.88;;;17.92;;
22046;SDS011;11187;49.412;20.956;2023-08-06T11:56:55;16.70;;;15.70;;
22046;SDS011;11187;49.412;20.956;2023-08-06T11:59:49;17.05;;;15.88;;
22046;SDS011;11187;49.412;20.956;2023-08-06T12:02:22;17.10;;;16.10;;
22046;SDS011;11187;49.412;20.956;2023-08-06T12:05:22;15.07;;;14.02;;
22046;SDS011;11187;49.412;20.956;2023-08-06T12:07:57;14.35;;;13.45;;
22046;SDS011;11187;49.412;20.956;2023-08-06T12:10:45;15.43;;;14.52;;
22046;SDS011;11187;49.412;20.956;2023-08-06T12:13:19;15.85;;;14.73;;
22046;SDS011;11187;49.412;20.956;2023-08-06T12:16:06;14.90;;;14.00;;
22046;SDS011;11187;49.412;20.956;2023-08-06T12:18:39;15.60;;;14.63;;
22046;SDS011;11187;49.412;20.956;2023-08-06T12:21:28;14.50;;;13.63;;
22046;SDS011;11187;49.412;20.956;2023-08-06T12:24:01;17.00;;;16.00;;
22046;SDS011;11187;49.412;20.956;2023-08-06T12:26:49;16.75;;;15.65;;
22046;SDS011;11187;49.412;20.956;2023-08-06T12:29:22;16.00;;;15.05;;
22046;SDS011;11187;49.412;20.956;2023-08-06T12:32:19;17.08;;;16.08;;
22046;SDS011;11187;49.412;20.956;2023-08-06T12:34:52;17.10;;;15.95;;
22046;SDS011;11187;49.412;20.956;2023-08-06T12:37:47;15.85;;;14.63;;
22046;SDS011;11187;49.412;20.956;2023-08-06T12:40:20;15.45;;;14.30;;
22046;SDS011;11187;49.412;20.956;2023-08-06T12:43:16;12.95;;;12.15;;
22046;SDS011;11187;49.412;20.956;2023-08-06T12:45:49;13.80;;;13.00;;
22046;SDS011;11187;49.412;20.956;2023-08-06T12:48:43;13.73;;;12.93;;
22046;SDS011;11187;49.412;20.956;2023-08-06T12:51:16;16.48;;;15.45;;
22046;SDS011;11187;49.412;20.956;2023-08-06T12:54:03;14.20;;;13.40;;
22046;SDS011;11187;49.412;20.956;2023-08-06T12:56:36;13.90;;;13.10;;
22046;SDS011;11187;49.412;20.956;2023-08-06T12:59:23;14.43;;;13.63;;
22046;SDS011;11187;49.412;20.956;2023-08-06T13:01:56;14.05;;;13.25;;
22046;SDS011;11187;49.412;20.956;2023-08-06T13:04:43;13.75;;;12.90;;
22046;SDS011;11187;49.412;20.956;2023-08-06T13:07:16;13.38;;;12.68;;
22046;SDS011;11187;49.412;20.956;2023-08-06T13:10:10;14.40;;;13.60;;
22046;SDS011;11187;49.412;20.956;2023-08-06T13:12:43;15.35;;;14.48;;
22046;SDS011;11187;49.412;20.956;2023-08-06T13:15:30;14.40;;;13.60;;
22046;SDS011;11187;49.412;20.956;2023-08-06T13:18:03;13.90;;;12.88;;
22046;SDS011;11187;49.412;20.956;2023-08-06T13:20:57;14.70;;;13.90;;
22046;SDS011;11187;49.412;20.956;2023-08-06T13:23:51;15.35;;;14.15;;
22046;SDS011;11187;49.412;20.956;2023-08-06T13:26:45;14.55;;;13.65;;
22046;SDS011;11187;49.412;20.956;2023-08-06T13:29:19;14.32;;;13.52;;
22046;SDS011;11187;49.412;20.956;2023-08-06T13:32:07;14.40;;;13.20;;
22046;SDS011;11187;49.412;20.956;2023-08-06T13:34:40;14.27;;;13.48;;
22046;SDS011;11187;49.412;20.956;2023-08-06T13:37:37;17.55;;;16.60;;
22046;SDS011;11187;49.412;20.956;2023-08-06T13:40:32;16.40;;;15.45;;
22046;SDS011;11187;49.412;20.956;2023-08-06T13:43:05;14.13;;;13.13;;
22046;SDS011;11187;49.412;20.956;2023-08-06T13:45:52;13.63;;;12.82;;
22046;SDS011;11187;49.412;20.956;2023-08-06T13:48:25;15.18;;;14.18;;
22046;SDS011;11187;49.412;20.956;2023-08-06T13:51:13;14.43;;;13.43;;
22046;SDS011;11187;49.412;20.956;2023-08-06T13:53:46;16.42;;;15.43;;
22046;SDS011;11187;49.412;20.956;2023-08-06T13:56:34;14.85;;;13.95;;
22046;SDS011;11187;49.412;20.956;2023-08-06T13:59:07;18.13;;;16.85;;
22046;SDS011;11187;49.412;20.956;2023-08-06T14:01:55;13.95;;;13.15;;
22046;SDS011;11187;49.412;20.956;2023-08-06T14:04:30;14.15;;;13.35;;
22046;SDS011;11187;49.412;20.956;2023-08-06T14:07:17;13.52;;;12.63;;
22046;SDS011;11187;49.412;20.956;2023-08-06T14:09:50;14.85;;;13.95;;
22046;SDS011;11187;49.412;20.956;2023-08-06T14:12:38;15.13;;;14.02;;
22046;SDS011;11187;49.412;20.956;2023-08-06T14:15:20;16.33;;;14.88;;
22046;SDS011;11187;49.412;20.956;2023-08-06T14:18:07;15.32;;;14.25;;
22046;SDS011;11187;49.412;20.956;2023-08-06T14:20:43;17.60;;;16.30;;
22046;SDS011;11187;49.412;20.956;2023-08-06T14:23:38;15.43;;;14.40;;
22046;SDS011;11187;49.412;20.956;2023-08-06T14:26:32;14.93;;;13.68;;
22046;SDS011;11187;49.412;20.956;2023-08-06T14:29:05;13.80;;;12.80;;
22046;SDS011;11187;49.412;20.956;2023-08-06T14:31:53;15.18;;;14.10;;
22046;SDS011;11187;49.412;20.956;2023-08-06T14:34:26;16.10;;;14.70;;
22046;SDS011;11187;49.412;20.956;2023-08-06T14:37:20;14.25;;;12.80;;
22046;SDS011;11187;49.412;20.956;2023-08-06T14:40:14;12.18;;;11.48;;
22046;SDS011;11187;49.412;20.956;2023-08-06T14:43:08;14.23;;;13.43;;
22046;SDS011;11187;49.412;20.956;2023-08-06T14:45:41;15.02;;;14.23;;
22046;SDS011;11187;49.412;20.956;2023-08-06T14:48:28;17.17;;;16.00;;
22046;SDS011;11187;49.412;20.956;2023-08-06T14:51:09;16.75;;;15.55;;
22046;SDS011;11187;49.412;20.956;2023-08-06T14:54:05;15.68;;;14.40;;
22046;SDS011;11187;49.412;20.956;2023-08-06T14:56:59;13.75;;;12.85;;
22046;SDS011;11187;49.412;20.956;2023-08-06T14:59:53;14.00;;;13.02;;
22046;SDS011;11187;49.412;20.956;2023-08-06T15:02:47;15.07;;;13.98;;
22046;SDS011;11187;49.412;20.956;2023-08-06T15:05:20;15.60;;;14.70;;
22046;SDS011;11187;49.412;20.956;2023-08-06T15:08:07;15.52;;;14.63;;
22046;SDS011;11187;49.412;20.956;2023-08-06T15:10:40;14.35;;;13.35;;
22046;SDS011;11187;49.412;20.956;2023-08-06T15:13:34;13.95;;;13.15;;
22046;SDS011;11187;49.412;20.956;2023-08-06T15:16:28;15.77;;;14.57;;
22046;SDS011;11187;49.412;20.956;2023-08-06T15:19:22;14.18;;;13.38;;
22046;SDS011;11187;49.412;20.956;2023-08-06T15:21:57;15.48;;;14.57;;
22046;SDS011;11187;49.412;20.956;2023-08-06T15:24:51;15.05;;;13.77;;
22046;SDS011;11187;49.412;20.956;2023-08-06T15:27:24;14.77;;;13.48;;
22046;SDS011;11187;49.412;20.956;2023-08-06T15:30:12;18.60;;;13.80;;
22046;SDS011;11187;49.412;20.956;2023-08-06T15:32:46;15.02;;;13.65;;
22046;SDS011;11187;49.412;20.956;2023-08-06T15:35:35;13.95;;;12.75;;
22046;SDS011;11187;49.412;20.956;2023-08-06T15:38:08;14.20;;;12.93;;
22046;SDS011;11187;49.412;20.956;2023-08-06T15:41:03;16.27;;;14.65;;
22046;SDS011;11187;49.412;20.956;2023-08-06T15:43:57;14.63;;;13.63;;
22046;SDS011;11187;49.412;20.956;2023-08-06T15:46:51;17.58;;;13.50;;
22046;SDS011;11187;49.412;20.956;2023-08-06T15:49:24;14.75;;;13.52;;
22046;SDS011;11187;49.412;20.956;2023-08-06T15:52:11;15.43;;;14.27;;
22046;SDS011;11187;49.412;20.956;2023-08-06T15:54:44;15.38;;;14.10;;
22046;SDS011;11187;49.412;20.956;2023-08-06T15:57:38;15.60;;;14.25;;
22046;SDS011;11187;49.412;20.956;2023-08-06T16:00:11;17.67;;;13.98;;
22046;SDS011;11187;49.412;20.956;2023-08-06T16:02:59;15.05;;;13.70;;